Time,TemperatureF,DewpointF,PressureIn,WindDirection,WindDirectionDegrees,WindSpeedMPH,WindSpeedGustMPH,Humidity,HourlyPrecipIn,Conditions,Clouds,dailyrainin,SoftwareType,DateUTC
2013-06-07 00:02:00,59.5,56.8,30.07,North,0,0.0,0.0,90,-99.99,,,-99.99,PWS SA v1.10,2013-06-07 04:02:00,
2013-06-07 00:04:00,59.5,56.9,30.07,North,0,0.0,0.0,90,-99.99,,,-99.99,PWS SA v1.10,2013-06-07 04:04:00,
2013-06-07 00:08:00,59.5,57.3,30.07,North,0,0.0,0.0,92,-99.99,,,-99.99,PWS SA v1.10,2013-06-07 04:08:00,
2013-06-07 00:12:00,59.4,57.0,30.06,North,0,0.0,0.0,91,-99.99,,,-99.99,PWS SA v1.10,2013-06-07 04:12:00,
2013-06-07 00:18:00,59.2,56.8,30.06,North,0,0.0,0.0,91,-99.99,,,-99.99,PWS SA v1.10,2013-06-07 04:18:00,
2013-06-07 00:24:00,59.1,57.1,30.06,North,0,0.0,0.0,92,-99.99,,,-99.99,PWS SA v1.10,2013-06-07 04:24:00,
2013-06-07 00:30:00,59.1,57.4,30.05,North,0,0.0,0.0,93,-99.99,,,-99.99,PWS SA v1.10,2013-06-07 04:30:00,
2013-06-07 00:36:00,59.1,57.2,30.05,North,0,0.0,0.0,93,-99.99,,,-99.99,PWS SA v1.10,2013-06-07 04:36:00,
2013-06-07 00:42:00,58.9,57.2,30.05,North,0,0.0,0.0,93,-99.99,,,-99.99,PWS SA v1.10,2013-06-07 04:42:00,
2013-06-07 00:48:00,58.9,57.3,30.05,North,0,0.0,0.0,94,-99.99,,,-99.99,PWS SA v1.10,2013-06-07 04:48:00,
2013-06-07 00:54:00,58.7,57.2,30.05,North,0,0.0,0.0,94,-99.99,,,-99.99,PWS SA v1.10,2013-06-07 04:54:00,
2013-06-07 01:00:00,58.6,57.1,30.05,North,0,0.0,0.0,94,-99.99,,,-99.99,PWS SA v1.10,2013-06-07 05:00:00,
2013-06-07 01:06:00,58.4,56.8,30.05,North,0,0.0,0.0,94,-99.99,,,-99.99,PWS SA v1.10,2013-06-07 05:06:00,
2013-06-07 01:12:00,58.2,56.6,30.04,North,0,0.0,0.0,93,-99.99,,,-99.99,PWS SA v1.10,2013-06-07 05:12:00,
2013-06-07 01:18:00,58.2,56.9,30.04,North,0,0.0,0.0,95,-99.99,,,-99.99,PWS SA v1.10,2013-06-07 05:18:00,
2013-06-07 01:24:00,58.0,57.0,30.04,North,0,0.0,0.0,95,-99.99,,,-99.99,PWS SA v1.10,2013-06-07 05:24:00,
2013-06-07 01:30:00,58.1,57.1,30.04,North,0,0.0,0.0,96,-99.99,,,-99.99,PWS SA v1.10,2013-06-07 05:30:00,
2013-06-07 01:36:00,58.0,57.1,30.04,North,0,0.0,0.0,96,-99.99,,,-99.99,PWS SA v1.10,2013-06-07 05:36:00,
2013-06-07 01:42:00,57.9,56.9,30.04,North,0,0.0,0.0,96,-99.99,,,-99.99,PWS SA v1.10,2013-06-07 05:42:00,
2013-06-07 01:48:00,57.9,56.7,30.03,North,0,0.0,0.0,95,-99.99,,,-99.99,PWS SA v1.10,2013-06-07 05:48:00,
2013-06-07 01:54:00,57.8,56.9,30.04,North,0,0.0,0.0,96,-99.99,,,-99.99,PWS SA v1.10,2013-06-07 05:54:00,
2013-06-07 02:00:00,57.7,56.8,30.04,North,0,0.0,0.0,96,-99.99,,,-99.99,PWS SA v1.10,2013-06-07 06:00:00,
2013-06-07 02:06:00,57.7,56.6,30.04,North,0,0.0,0.0,96,-99.99,,,-99.99,PWS SA v1.10,2013-06-07 06:06:00,
2013-06-07 02:12:00,57.7,56.7,30.04,North,0,0.0,0.0,96,-99.99,,,-99.99,PWS SA v1.10,2013-06-07 06:12:00,
2013-06-07 02:18:00,57.7,56.8,30.04,North,0,0.0,0.0,96,-99.99,,,-99.99,PWS SA v1.10,2013-06-07 06:18:00,
2013-06-07 02:24:00,57.7,57.1,30.03,North,0,0.0,0.0,97,-99.99,,,-99.99,PWS SA v1.10,2013-06-07 06:24:00,
2013-06-07 02:30:00,57.8,57.2,30.03,North,0,0.0,0.0,97,-99.99,,,-99.99,PWS SA v1.10,2013-06-07 06:30:00,
2013-06-07 02:36:00,57.7,57.0,30.02,North,0,0.0,0.0,97,-99.99,,,-99.99,PWS SA v1.10,2013-06-07 06:36:00,
2013-06-07 02:42:00,57.4,56.7,30.02,North,0,0.0,0.0,97,-99.99,,,-99.99,PWS SA v1.10,2013-06-07 06:42:00,
2013-06-07 02:48:00,57.3,56.9,30.02,North,0,0.0,1.0,98,-99.99,,,-99.99,PWS SA v1.10,2013-06-07 06:48:00,
2013-06-07 02:54:00,57.5,56.8,30.02,North,0,0.0,1.0,97,-99.99,,,-99.99,PWS SA v1.10,2013-06-07 06:54:00,
2013-06-07 03:00:00,57.5,56.9,30.01,North,0,0.0,1.0,98,-99.99,,,-99.99,PWS SA v1.10,2013-06-07 07:00:00,
2013-06-07 03:06:00,57.4,56.9,30.01,North,0,0.0,0.0,97,-99.99,,,-99.99,PWS SA v1.10,2013-06-07 07:06:00,
2013-06-07 03:12:00,57.3,56.7,30.00,North,0,0.0,0.0,97,-99.99,,,-99.99,PWS SA v1.10,2013-06-07 07:12:00,
2013-06-07 03:18:00,57.3,56.7,30.00,North,0,0.0,0.0,97,-99.99,,,-99.99,PWS SA v1.10,2013-06-07 07:18:00,
2013-06-07 03:24:00,57.3,56.6,30.00,North,0,0.0,0.0,97,-99.99,,,-99.99,PWS SA v1.10,2013-06-07 07:24:00,
2013-06-07 03:30:00,57.2,56.3,30.00,North,0,0.0,3.0,97,-99.99,,,-99.99,PWS SA v1.10,2013-06-07 07:30:00,
2013-06-07 03:36:00,56.9,56.1,29.99,North,0,0.0,3.0,97,-99.99,,,-99.99,PWS SA v1.10,2013-06-07 07:36:00,
2013-06-07 03:42:00,56.9,56.1,29.99,North,0,0.0,1.0,97,-99.99,,,-99.99,PWS SA v1.10,2013-06-07 07:42:00,
2013-06-07 03:48:00,56.9,56.2,29.99,North,0,0.0,0.0,97,-99.99,,,-99.99,PWS SA v1.10,2013-06-07 07:48:00,
2013-06-07 03:54:00,57.0,56.4,29.99,North,0,0.0,0.0,97,-99.99,,,-99.99,PWS SA v1.10,2013-06-07 07:54:00,
2013-06-07 04:00:00,57.1,56.2,29.99,North,0,0.0,0.0,96,-99.99,,,-99.99,PWS SA v1.10,2013-06-07 08:00:00,
2013-06-07 04:06:00,57.0,56.1,29.99,North,0,0.0,0.0,96,-99.99,,,-99.99,PWS SA v1.10,2013-06-07 08:06:00,
2013-06-07 04:12:00,57.1,56.3,30.00,North,0,0.0,0.0,96,-99.99,,,-99.99,PWS SA v1.10,2013-06-07 08:12:00,
2013-06-07 04:18:00,57.1,56.3,29.99,North,0,0.0,0.0,96,-99.99,,,-99.99,PWS SA v1.10,2013-06-07 08:18:00,
2013-06-07 04:24:00,57.0,55.9,30.00,North,0,0.0,0.0,96,-99.99,,,-99.99,PWS SA v1.10,2013-06-07 08:24:00,
2013-06-07 04:30:00,57.0,56.2,30.00,North,0,0.0,0.0,96,-99.99,,,-99.99,PWS SA v1.10,2013-06-07 08:30:00,
2013-06-07 04:36:00,57.0,56.0,30.00,North,0,0.0,0.0,95,-99.99,,,-99.99,PWS SA v1.10,2013-06-07 08:36:00,
2013-06-07 04:42:00,56.9,55.7,30.00,North,0,0.0,0.0,95,-99.99,,,-99.99,PWS SA v1.10,2013-06-07 08:42:00,
2013-06-07 04:48:00,56.8,56.0,30.00,North,0,0.0,0.0,96,-99.99,,,-99.99,PWS SA v1.10,2013-06-07 08:48:00,
2013-06-07 04:54:00,56.8,55.9,30.00,North,0,0.0,0.0,96,-99.99,,,-99.99,PWS SA v1.10,2013-06-07 08:54:00,
2013-06-07 05:00:00,56.8,55.9,29.99,North,0,0.0,0.0,96,-99.99,,,-99.99,PWS SA v1.10,2013-06-07 09:00:00,
2013-06-07 05:06:00,56.6,55.5,30.00,North,0,0.0,0.0,96,-99.99,,,-99.99,PWS SA v1.10,2013-06-07 09:06:00,
2013-06-07 05:12:00,56.8,55.9,30.00,North,0,0.0,0.0,96,-99.99,,,-99.99,PWS SA v1.10,2013-06-07 09:12:00,
2013-06-07 05:18:00,56.6,55.6,30.00,North,0,0.0,0.0,96,-99.99,,,-99.99,PWS SA v1.10,2013-06-07 09:18:00,
2013-06-07 05:24:00,56.6,55.6,30.00,North,0,0.0,0.0,96,-99.99,,,-99.99,PWS SA v1.10,2013-06-07 09:24:00,
2013-06-07 05:30:00,56.5,55.6,30.00,North,0,0.0,0.0,96,-99.99,,,-99.99,PWS SA v1.10,2013-06-07 09:30:00,
2013-06-07 05:36:00,56.5,55.5,30.00,North,0,0.0,0.0,96,-99.99,,,-99.99,PWS SA v1.10,2013-06-07 09:36:00,
2013-06-07 05:42:00,56.4,55.4,30.01,North,0,0.0,0.0,96,-99.99,,,-99.99,PWS SA v1.10,2013-06-07 09:42:00,
2013-06-07 05:48:00,56.5,55.1,30.01,North,0,0.0,0.0,95,-99.99,,,-99.99,PWS SA v1.10,2013-06-07 09:48:00,
2013-06-07 05:54:00,56.5,55.5,30.00,North,0,0.0,0.0,96,-99.99,,,-99.99,PWS SA v1.10,2013-06-07 09:54:00,
2013-06-07 06:00:00,56.5,55.5,30.01,North,0,0.0,0.0,96,-99.99,,,-99.99,PWS SA v1.10,2013-06-07 10:00:00,
2013-06-07 06:06:00,56.5,55.4,30.01,North,0,0.0,0.0,95,-99.99,,,-99.99,PWS SA v1.10,2013-06-07 10:06:00,
2013-06-07 06:12:00,56.3,54.9,30.01,North,0,0.0,0.0,95,-99.99,,,-99.99,PWS SA v1.10,2013-06-07 10:12:00,
2013-06-07 06:18:00,56.2,54.6,30.00,North,0,0.0,0.0,94,-99.99,,,-99.99,PWS SA v1.10,2013-06-07 10:18:00,
2013-06-07 06:24:00,55.8,53.7,30.00,North,0,0.0,3.0,91,-99.99,,,-99.99,PWS SA v1.10,2013-06-07 10:24:00,
2013-06-07 06:30:00,55.7,53.1,30.00,North,0,0.0,3.0,91,-99.99,,,-99.99,PWS SA v1.10,2013-06-07 10:30:00,
2013-06-07 06:36:00,55.6,53.3,30.00,North,0,0.0,3.0,91,-99.99,,,-99.99,PWS SA v1.10,2013-06-07 10:36:00,
2013-06-07 06:42:00,55.2,52.4,30.01,North,0,0.0,0.0,90,-99.99,,,-99.99,PWS SA v1.10,2013-06-07 10:42:00,
2013-06-07 06:48:00,55.2,52.6,30.00,North,0,0.0,0.0,90,-99.99,,,-99.99,PWS SA v1.10,2013-06-07 10:48:00,
2013-06-07 06:54:00,55.1,52.7,30.00,North,0,0.0,0.0,91,-99.99,,,-99.99,PWS SA v1.10,2013-06-07 10:54:00,
2013-06-07 07:00:00,55.1,53.3,30.00,North,0,0.0,0.0,93,-99.99,,,-99.99,PWS SA v1.10,2013-06-07 11:00:00,
2013-06-07 07:06:00,55.1,52.9,30.00,North,0,0.0,0.0,92,-99.99,,,-99.99,PWS SA v1.10,2013-06-07 11:06:00,
2013-06-07 07:12:00,55.3,53.4,30.00,North,0,0.0,0.0,93,-99.99,,,-99.99,PWS SA v1.10,2013-06-07 11:12:00,
2013-06-07 07:18:00,55.5,53.9,30.00,North,0,0.0,0.0,94,-99.99,,,-99.99,PWS SA v1.10,2013-06-07 11:18:00,
2013-06-07 07:24:00,55.5,54.3,30.00,North,0,0.0,0.0,95,-99.99,,,-99.99,PWS SA v1.10,2013-06-07 11:24:00,
2013-06-07 07:30:00,55.5,54.3,30.00,North,0,0.0,0.0,95,-99.99,,,-99.99,PWS SA v1.10,2013-06-07 11:30:00,
2013-06-07 07:36:00,55.7,54.5,30.00,North,0,0.0,0.0,96,-99.99,,,-99.99,PWS SA v1.10,2013-06-07 11:36:00,
2013-06-07 07:42:00,55.9,54.9,30.00,North,0,0.0,0.0,96,-99.99,,,-99.99,PWS SA v1.10,2013-06-07 11:42:00,
2013-06-07 07:48:00,55.9,55.0,30.00,North,0,0.0,0.0,96,-99.99,,,-99.99,PWS SA v1.10,2013-06-07 11:48:00,
2013-06-07 07:54:00,56.2,55.8,30.00,North,0,0.0,0.0,98,-99.99,,,-99.99,PWS SA v1.10,2013-06-07 11:54:00,
2013-06-07 08:00:00,56.2,55.7,30.00,North,0,0.0,1.0,98,-99.99,,,-99.99,PWS SA v1.10,2013-06-07 12:00:00,
2013-06-07 08:06:00,56.4,55.7,30.00,North,0,0.0,5.0,98,-99.99,,,-99.99,PWS SA v1.10,2013-06-07 12:06:00,
2013-06-07 08:12:00,56.5,56.0,30.00,North,0,0.0,5.0,98,-99.99,,,-99.99,PWS SA v1.10,2013-06-07 12:12:00,
2013-06-07 08:18:00,56.4,56.0,30.00,North,0,0.0,0.0,98,-99.99,,,-99.99,PWS SA v1.10,2013-06-07 12:18:00,
2013-06-07 08:24:00,56.5,56.2,30.00,North,0,0.0,0.0,98,-99.99,,,-99.99,PWS SA v1.10,2013-06-07 12:24:00,
2013-06-07 08:30:00,56.4,55.8,29.99,North,0,0.0,3.0,98,-99.99,,,-99.99,PWS SA v1.10,2013-06-07 12:30:00,
2013-06-07 08:36:00,56.4,56.0,30.00,North,0,0.0,3.0,98,-99.99,,,-99.99,PWS SA v1.10,2013-06-07 12:36:00,
2013-06-07 08:42:00,56.8,56.2,30.00,North,0,0.0,0.0,98,-99.99,,,-99.99,PWS SA v1.10,2013-06-07 12:42:00,
2013-06-07 08:48:00,56.8,56.4,30.00,SE,125,3.4,3.4,99,-99.99,,,-99.99,PWS SA v1.10,2013-06-07 12:48:00,
2013-06-07 08:54:00,56.9,56.4,30.00,North,0,0.0,3.0,99,-99.99,,,-99.99,PWS SA v1.10,2013-06-07 12:54:00,
2013-06-07 09:00:00,56.9,56.5,30.00,NNW,336,1.7,3.0,99,-99.99,,,-99.99,PWS SA v1.10,2013-06-07 13:00:00,
2013-06-07 09:06:00,56.9,56.5,30.00,North,0,0.0,1.0,99,-99.99,,,-99.99,PWS SA v1.10,2013-06-07 13:06:00,
2013-06-07 09:12:00,56.9,56.5,30.01,North,0,0.0,1.0,98,-99.99,,,-99.99,PWS SA v1.10,2013-06-07 13:12:00,
2013-06-07 09:18:00,57.1,57.0,30.00,North,0,0.0,0.0,99,-99.99,,,-99.99,PWS SA v1.10,2013-06-07 13:18:00,
2013-06-07 09:24:00,57.1,57.0,30.00,North,0,0.0,0.0,99,-99.99,,,-99.99,PWS SA v1.10,2013-06-07 13:24:00,
2013-06-07 09:30:00,57.1,56.8,30.00,North,0,0.0,1.0,99,-99.99,,,-99.99,PWS SA v1.10,2013-06-07 13:30:00,
2013-06-07 09:36:00,57.2,56.9,30.00,North,0,0.0,1.0,99,-99.99,,,-99.99,PWS SA v1.10,2013-06-07 13:36:00,
2013-06-07 09:42:00,57.1,57.0,30.00,North,0,0.0,1.0,98,-99.99,,,-99.99,PWS SA v1.10,2013-06-07 13:42:00,
2013-06-07 09:48:00,57.3,56.9,30.00,North,0,0.0,1.0,99,-99.99,,,-99.99,PWS SA v1.10,2013-06-07 13:48:00,
2013-06-07 09:54:00,57.3,57.1,30.00,North,0,0.0,3.0,99,-99.99,,,-99.99,PWS SA v1.10,2013-06-07 13:54:00,
2013-06-07 10:00:00,57.4,57.0,30.00,North,0,0.0,3.0,99,-99.99,,,-99.99,PWS SA v1.10,2013-06-07 14:00:00,
2013-06-07 10:06:00,57.3,57.1,29.99,NNE,25,1.7,1.7,99,-99.99,,,-99.99,PWS SA v1.10,2013-06-07 14:06:00,
2013-06-07 10:12:00,57.4,57.1,29.99,North,0,0.0,3.0,99,-99.99,,,-99.99,PWS SA v1.10,2013-06-07 14:12:00,
2013-06-07 10:18:00,57.5,57.3,30.00,North,0,0.0,3.0,99,-99.99,,,-99.99,PWS SA v1.10,2013-06-07 14:18:00,
2013-06-07 10:24:00,57.5,57.4,30.00,North,0,0.0,1.0,99,-99.99,,,-99.99,PWS SA v1.10,2013-06-07 14:24:00,
2013-06-07 10:30:00,57.7,57.4,30.00,North,0,0.0,3.0,99,-99.99,,,-99.99,PWS SA v1.10,2013-06-07 14:30:00,
2013-06-07 10:36:00,57.4,57.0,30.00,North,0,0.0,3.0,99,-99.99,,,-99.99,PWS SA v1.10,2013-06-07 14:36:00,
2013-06-07 10:42:00,57.6,57.2,30.00,North,362,1.7,1.7,98,-99.99,,,-99.99,PWS SA v1.10,2013-06-07 14:42:00,
2013-06-07 10:48:00,57.6,57.3,30.00,North,0,0.0,5.0,99,-99.99,,,-99.99,PWS SA v1.10,2013-06-07 14:48:00,
2013-06-07 10:54:00,57.5,57.2,30.00,North,0,0.0,5.0,98,-99.99,,,-99.99,PWS SA v1.10,2013-06-07 14:54:00,
2013-06-07 11:00:00,57.7,57.4,30.00,North,0,0.0,1.0,99,-99.99,,,-99.99,PWS SA v1.10,2013-06-07 15:00:00,
2013-06-07 11:06:00,57.7,57.5,30.00,North,0,0.0,1.0,99,-99.99,,,-99.99,PWS SA v1.10,2013-06-07 15:06:00,
2013-06-07 11:12:00,57.8,57.7,30.00,North,0,0.0,0.0,99,-99.99,,,-99.99,PWS SA v1.10,2013-06-07 15:12:00,
2013-06-07 11:18:00,58.0,57.6,30.00,North,0,0.0,0.0,99,-99.99,,,-99.99,PWS SA v1.10,2013-06-07 15:18:00,
2013-06-07 11:24:00,57.8,57.8,30.00,North,0,0.0,0.0,99,-99.99,,,-99.99,PWS SA v1.10,2013-06-07 15:24:00,
2013-06-07 11:30:00,58.0,57.7,30.00,North,0,0.0,0.0,100,-99.99,,,-99.99,PWS SA v1.10,2013-06-07 15:30:00,
2013-06-07 11:36:00,58.2,58.0,30.00,North,0,0.0,0.0,100,-99.99,,,-99.99,PWS SA v1.10,2013-06-07 15:36:00,
2013-06-07 11:42:00,58.2,58.1,30.00,North,0,0.0,1.0,100,-99.99,,,-99.99,PWS SA v1.10,2013-06-07 15:42:00,
2013-06-07 11:48:00,58.6,58.4,30.00,North,0,0.0,1.0,100,-99.99,,,-99.99,PWS SA v1.10,2013-06-07 15:48:00,
2013-06-07 11:54:00,58.7,58.4,29.99,North,0,0.0,1.0,100,-99.99,,,-99.99,PWS SA v1.10,2013-06-07 15:54:00,
2013-06-07 12:00:00,58.6,58.7,29.99,North,0,0.0,0.0,100,-99.99,,,-99.99,PWS SA v1.10,2013-06-07 16:00:00,
2013-06-07 12:06:00,58.6,58.5,29.99,North,0,0.0,1.0,100,-99.99,,,-99.99,PWS SA v1.10,2013-06-07 16:06:00,
2013-06-07 12:12:00,58.7,58.8,29.99,North,0,0.0,1.0,100,-99.99,,,-99.99,PWS SA v1.10,2013-06-07 16:12:00,
2013-06-07 12:18:00,58.7,58.6,29.99,North,0,0.0,1.0,99,-99.99,,,-99.99,PWS SA v1.10,2013-06-07 16:18:00,
2013-06-07 12:24:00,58.7,58.7,29.99,North,0,0.0,1.0,100,-99.99,,,-99.99,PWS SA v1.10,2013-06-07 16:24:00,
2013-06-07 12:30:00,59.0,58.9,29.99,North,0,0.0,1.0,100,-99.99,,,-99.99,PWS SA v1.10,2013-06-07 16:30:00,
2013-06-07 12:36:00,59.1,59.0,29.99,North,0,0.0,0.0,100,-99.99,,,-99.99,PWS SA v1.10,2013-06-07 16:36:00,
2013-06-07 12:42:00,59.2,59.0,29.99,North,0,0.0,1.0,100,-99.99,,,-99.99,PWS SA v1.10,2013-06-07 16:42:00,
2013-06-07 12:48:00,59.2,59.1,29.99,North,0,0.0,1.0,99,-99.99,,,-99.99,PWS SA v1.10,2013-06-07 16:48:00,
2013-06-07 12:54:00,59.2,58.8,29.98,East,99,1.7,1.7,99,-99.99,,,-99.99,PWS SA v1.10,2013-06-07 16:54:00,
2013-06-07 13:00:00,59.2,59.1,29.98,North,0,0.0,1.0,99,-99.99,,,-99.99,PWS SA v1.10,2013-06-07 17:00:00,
2013-06-07 13:06:00,59.2,59.0,29.98,NW,318,1.7,1.7,99,-99.99,,,-99.99,PWS SA v1.10,2013-06-07 17:06:00,
2013-06-07 13:12:00,59.4,59.3,29.98,North,0,0.0,1.0,99,-99.99,,,-99.99,PWS SA v1.10,2013-06-07 17:12:00,
2013-06-07 13:18:00,59.3,58.9,29.98,North,0,0.0,1.0,99,-99.99,,,-99.99,PWS SA v1.10,2013-06-07 17:18:00,
2013-06-07 13:24:00,59.1,58.6,29.98,North,0,0.0,3.0,98,-99.99,,,-99.99,PWS SA v1.10,2013-06-07 17:24:00,
2013-06-07 13:30:00,59.2,58.7,29.98,North,9,3.4,3.4,98,-99.99,,,-99.99,PWS SA v1.10,2013-06-07 17:30:00,
2013-06-07 13:36:00,59.5,59.3,29.97,North,0,0.0,3.0,99,-99.99,,,-99.99,PWS SA v1.10,2013-06-07 17:36:00,
2013-06-07 13:42:00,59.4,59.2,29.98,North,0,0.0,3.0,99,-99.99,,,-99.99,PWS SA v1.10,2013-06-07 17:42:00,
2013-06-07 13:48:00,59.1,59.0,29.97,North,0,0.0,1.0,99,-99.99,,,-99.99,PWS SA v1.10,2013-06-07 17:48:00,
2013-06-07 13:54:00,59.0,58.5,29.98,ENE,70,1.7,1.7,99,-99.99,,,-99.99,PWS SA v1.10,2013-06-07 17:54:00,
2013-06-07 14:00:00,58.7,58.2,29.98,North,0,0.0,1.0,98,-99.99,,,-99.99,PWS SA v1.10,2013-06-07 18:00:00,
2013-06-07 14:06:00,58.7,58.3,29.97,North,0,0.0,1.0,98,-99.99,,,-99.99,PWS SA v1.10,2013-06-07 18:06:00,
2013-06-07 14:12:00,58.7,58.3,29.98,North,0,0.0,1.0,98,-99.99,,,-99.99,PWS SA v1.10,2013-06-07 18:12:00,
2013-06-07 14:18:00,58.9,58.4,29.97,North,0,0.0,1.0,98,-99.99,,,-99.99,PWS SA v1.10,2013-06-07 18:18:00,
2013-06-07 14:24:00,58.7,58.2,29.97,North,0,0.0,1.0,98,-99.99,,,-99.99,PWS SA v1.10,2013-06-07 18:24:00,
2013-06-07 14:30:00,58.5,58.1,29.97,North,0,0.0,5.0,99,-99.99,,,-99.99,PWS SA v1.10,2013-06-07 18:30:00,
2013-06-07 14:36:00,58.2,57.6,29.97,WSW,257,1.7,5.0,98,-99.99,,,-99.99,PWS SA v1.10,2013-06-07 18:36:00,
2013-06-07 14:42:00,58.3,57.8,29.97,North,0,0.0,3.0,98,-99.99,,,-99.99,PWS SA v1.10,2013-06-07 18:42:00,
2013-06-07 14:48:00,58.2,57.8,29.96,SE,140,5.1,5.1,99,-99.99,,,-99.99,PWS SA v1.10,2013-06-07 18:48:00,
2013-06-07 14:54:00,58.2,57.9,29.96,NW,326,6.8,6.8,99,-99.99,,,-99.99,PWS SA v1.10,2013-06-07 18:54:00,
2013-06-07 15:00:00,58.2,58.0,29.96,North,0,0.0,6.0,99,-99.99,,,-99.99,PWS SA v1.10,2013-06-07 19:00:00,
2013-06-07 15:08:00,58.2,57.9,29.96,North,0,0.0,6.0,99,-99.99,,,-99.99,PWS SA v1.10,2013-06-07 19:08:00,
2013-06-07 15:18:00,58.1,57.8,29.95,North,0,0.0,3.0,99,-99.99,,,-99.99,PWS SA v1.10,2013-06-07 19:18:00,
2013-06-07 15:26:00,58.2,58.0,29.95,North,0,0.0,3.0,99,-99.99,,,-99.99,PWS SA v1.10,2013-06-07 19:26:00,
2013-06-07 15:32:00,58.1,58.0,29.95,SE,144,1.7,3.0,100,-99.99,,,-99.99,PWS SA v1.10,2013-06-07 19:32:00,
2013-06-07 15:40:00,57.7,57.6,29.95,North,0,0.0,3.0,100,-99.99,,,-99.99,PWS SA v1.10,2013-06-07 19:40:00,
2013-06-07 15:46:00,57.8,57.9,29.94,North,0,0.0,3.0,100,-99.99,,,-99.99,PWS SA v1.10,2013-06-07 19:46:00,
2013-06-07 15:52:00,57.7,57.8,29.94,North,0,0.0,3.0,100,-99.99,,,-99.99,PWS SA v1.10,2013-06-07 19:52:00,
2013-06-07 15:58:00,57.7,57.6,29.93,North,0,0.0,3.0,100,-99.99,,,-99.99,PWS SA v1.10,2013-06-07 19:58:00,
2013-06-07 16:08:00,57.5,57.5,29.93,North,0,0.0,5.0,100,-99.99,,,-99.99,PWS SA v1.10,2013-06-07 20:08:00,
2013-06-07 16:14:00,57.4,57.3,29.93,North,0,0.0,5.0,100,-99.99,,,-99.99,PWS SA v1.10,2013-06-07 20:14:00,
2013-06-07 16:22:00,57.5,57.5,29.93,North,0,0.0,3.0,100,-99.99,,,-99.99,PWS SA v1.10,2013-06-07 20:22:00,
2013-06-07 16:28:00,57.4,57.3,29.92,North,0,0.0,3.0,100,-99.99,,,-99.99,PWS SA v1.10,2013-06-07 20:28:00,
2013-06-07 16:34:00,57.3,57.3,29.92,North,0,0.0,3.0,100,-99.99,,,-99.99,PWS SA v1.10,2013-06-07 20:34:00,
2013-06-07 16:40:00,57.4,57.5,29.93,North,0,0.0,1.0,100,-99.99,,,-99.99,PWS SA v1.10,2013-06-07 20:40:00,
2013-06-07 16:46:00,57.1,56.9,29.92,NE,53,3.4,6.0,100,-99.99,,,-99.99,PWS SA v1.10,2013-06-07 20:46:00,
2013-06-07 16:52:00,57.0,56.8,29.92,ENE,67,5.1,6.0,100,-99.99,,,-99.99,PWS SA v1.10,2013-06-07 20:52:00,
2013-06-07 16:58:00,57.0,56.9,29.92,NNW,348,1.7,5.0,100,-99.99,,,-99.99,PWS SA v1.10,2013-06-07 20:58:00,
2013-06-07 17:04:00,57.1,57.0,29.92,North,0,0.0,5.0,100,-99.99,,,-99.99,PWS SA v1.10,2013-06-07 21:04:00,
2013-06-07 17:10:00,56.9,56.6,29.92,North,0,0.0,5.0,100,-99.99,,,-99.99,PWS SA v1.10,2013-06-07 21:10:00,
2013-06-07 17:16:00,56.9,56.6,29.92,North,0,0.0,5.0,100,-99.99,,,-99.99,PWS SA v1.10,2013-06-07 21:16:00,
2013-06-07 17:24:00,56.9,56.9,29.92,North,0,0.0,1.0,100,-99.99,,,-99.99,PWS SA v1.10,2013-06-07 21:24:00,
2013-06-07 17:30:00,56.7,56.7,29.92,North,0,0.0,3.0,100,-99.99,,,-99.99,PWS SA v1.10,2013-06-07 21:30:00,
2013-06-07 17:36:00,56.8,56.8,29.91,North,0,0.0,3.0,100,-99.99,,,-99.99,PWS SA v1.10,2013-06-07 21:36:00,
2013-06-07 17:42:00,56.7,56.6,29.91,North,0,0.0,3.0,100,-99.99,,,-99.99,PWS SA v1.10,2013-06-07 21:42:00,
2013-06-07 17:48:00,56.4,56.5,29.92,North,0,0.0,3.0,100,-99.99,,,-99.99,PWS SA v1.10,2013-06-07 21:48:00,
2013-06-07 18:02:00,56.3,56.3,29.92,North,0,0.0,0.0,100,-99.99,,,-99.99,PWS SA v1.10,2013-06-07 22:02:00,
2013-06-07 18:08:00,56.3,56.3,29.92,North,0,0.0,1.0,100,-99.99,,,-99.99,PWS SA v1.10,2013-06-07 22:08:00,
2013-06-07 18:16:00,56.1,56.2,29.91,NNE,26,1.7,1.7,100,-99.99,,,-99.99,PWS SA v1.10,2013-06-07 22:16:00,
2013-06-07 18:22:00,56.2,56.2,29.92,North,0,0.0,1.0,100,-99.99,,,-99.99,PWS SA v1.10,2013-06-07 22:22:00,
2013-06-07 18:28:00,56.1,56.2,29.91,North,0,0.0,1.0,100,-99.99,,,-99.99,PWS SA v1.10,2013-06-07 22:28:00,
2013-06-07 18:34:00,56.1,56.1,29.91,NNW,348,1.7,1.7,100,-99.99,,,-99.99,PWS SA v1.10,2013-06-07 22:34:00,
2013-06-07 18:40:00,56.1,56.1,29.91,North,0,0.0,1.0,100,-99.99,,,-99.99,PWS SA v1.10,2013-06-07 22:40:00,
2013-06-07 18:46:00,56.0,56.1,29.90,NE,43,1.7,1.7,100,-99.99,,,-99.99,PWS SA v1.10,2013-06-07 22:46:00,
2013-06-07 18:52:00,55.8,55.9,29.90,North,0,0.0,1.0,100,-99.99,,,-99.99,PWS SA v1.10,2013-06-07 22:52:00,
2013-06-07 18:58:00,55.6,55.8,29.90,NNW,347,1.7,1.7,100,-99.99,,,-99.99,PWS SA v1.10,2013-06-07 22:58:00,
2013-06-07 19:04:00,55.6,55.6,29.91,North,0,0.0,3.0,100,-99.99,,,-99.99,PWS SA v1.10,2013-06-07 23:04:00,
2013-06-07 19:10:00,55.6,55.4,29.90,NNE,17,1.7,3.0,100,-99.99,,,-99.99,PWS SA v1.10,2013-06-07 23:10:00,
2013-06-07 19:16:00,55.5,55.4,29.89,North,0,0.0,3.0,100,-99.99,,,-99.99,PWS SA v1.10,2013-06-07 23:16:00,
2013-06-07 19:26:00,55.4,55.5,29.89,North,9,1.7,5.0,100,-99.99,,,-99.99,PWS SA v1.10,2013-06-07 23:26:00,
2013-06-07 19:32:00,55.5,55.5,29.88,North,0,0.0,5.0,100,-99.99,,,-99.99,PWS SA v1.10,2013-06-07 23:32:00,
2013-06-07 19:40:00,55.4,55.4,29.87,North,0,0.0,3.0,100,-99.99,,,-99.99,PWS SA v1.10,2013-06-07 23:40:00,
2013-06-07 19:46:00,55.3,55.5,29.87,North,0,0.0,3.0,100,-99.99,,,-99.99,PWS SA v1.10,2013-06-07 23:46:00,
2013-06-07 19:52:00,55.2,55.3,29.87,North,0,0.0,5.0,100,-99.99,,,-99.99,PWS SA v1.10,2013-06-07 23:52:00,
2013-06-07 20:00:00,55.3,55.3,29.86,NE,39,1.7,5.0,100,-99.99,,,-99.99,PWS SA v1.10,2013-06-08 00:00:00,
2013-06-07 20:06:00,55.2,55.2,29.86,North,0,0.0,5.0,100,-99.99,,,-99.99,PWS SA v1.10,2013-06-08 00:06:00,
2013-06-07 20:12:00,55.2,55.2,29.86,North,0,0.0,5.0,100,-99.99,,,-99.99,PWS SA v1.10,2013-06-08 00:12:00,
2013-06-07 20:20:00,55.1,55.1,29.85,North,361,5.1,6.0,100,-99.99,,,-99.99,PWS SA v1.10,2013-06-08 00:20:00,
2013-06-07 20:26:00,55.1,55.0,29.85,North,0,0.0,6.0,100,-99.99,,,-99.99,PWS SA v1.10,2013-06-08 00:26:00,
2013-06-07 20:32:00,55.2,55.2,29.84,North,0,0.0,5.0,100,-99.99,,,-99.99,PWS SA v1.10,2013-06-08 00:32:00,
2013-06-07 20:38:00,55.1,55.2,29.84,North,10,5.1,5.1,100,-99.99,,,-99.99,PWS SA v1.10,2013-06-08 00:38:00,
2013-06-07 20:44:00,55.3,55.3,29.84,North,0,0.0,5.0,100,-99.99,,,-99.99,PWS SA v1.10,2013-06-08 00:44:00,
2013-06-07 20:50:00,55.1,55.0,29.84,North,0,0.0,3.0,100,-99.99,,,-99.99,PWS SA v1.10,2013-06-08 00:50:00,
2013-06-07 20:56:00,55.1,55.0,29.84,North,0,0.0,3.0,100,-99.99,,,-99.99,PWS SA v1.10,2013-06-08 00:56:00,
2013-06-07 21:04:00,55.1,54.9,29.83,North,0,0.0,1.0,100,-99.99,,,-99.99,PWS SA v1.10,2013-06-08 01:04:00,
2013-06-07 21:10:00,55.1,55.3,29.84,North,0,0.0,3.0,100,-99.99,,,-99.99,PWS SA v1.10,2013-06-08 01:10:00,
2013-06-07 21:16:00,55.1,55.3,29.85,North,0,0.0,3.0,100,-99.99,,,-99.99,PWS SA v1.10,2013-06-08 01:16:00,
2013-06-07 21:22:00,55.1,55.2,29.85,North,0,0.0,3.0,100,-99.99,,,-99.99,PWS SA v1.10,2013-06-08 01:22:00,
2013-06-07 21:28:00,55.1,55.1,29.84,North,0,0.0,1.0,100,-99.99,,,-99.99,PWS SA v1.10,2013-06-08 01:28:00,
2013-06-07 21:38:00,55.0,55.1,29.85,North,0,0.0,3.0,100,-99.99,,,-99.99,PWS SA v1.10,2013-06-08 01:38:00,
2013-06-07 21:44:00,55.0,55.1,29.85,North,0,0.0,3.0,100,-99.99,,,-99.99,PWS SA v1.10,2013-06-08 01:44:00,
2013-06-07 21:50:00,55.0,54.9,29.84,North,0,0.0,1.0,100,-99.99,,,-99.99,PWS SA v1.10,2013-06-08 01:50:00,
2013-06-07 21:56:00,55.0,55.0,29.85,North,0,0.0,0.0,100,-99.99,,,-99.99,PWS SA v1.10,2013-06-08 01:56:00,
2013-06-07 22:02:00,55.0,54.9,29.84,North,0,0.0,1.0,100,-99.99,,,-99.99,PWS SA v1.10,2013-06-08 02:02:00,
2013-06-07 22:08:00,55.0,54.9,29.83,North,0,0.0,1.0,100,-99.99,,,-99.99,PWS SA v1.10,2013-06-08 02:08:00,
2013-06-07 22:14:00,55.0,55.2,29.83,North,0,0.0,1.0,100,-99.99,,,-99.99,PWS SA v1.10,2013-06-08 02:14:00,
2013-06-07 22:22:00,55.0,54.9,29.83,North,0,0.0,0.0,100,-99.99,,,-99.99,PWS SA v1.10,2013-06-08 02:22:00,
2013-06-07 22:28:00,55.0,55.0,29.81,North,0,0.0,0.0,100,-99.99,,,-99.99,PWS SA v1.10,2013-06-08 02:28:00,
2013-06-07 22:34:00,54.9,55.1,29.81,North,0,0.0,0.0,100,-99.99,,,-99.99,PWS SA v1.10,2013-06-08 02:34:00,
2013-06-07 22:40:00,54.9,55.0,29.82,North,0,0.0,0.0,100,-99.99,,,-99.99,PWS SA v1.10,2013-06-08 02:40:00,
2013-06-07 22:46:00,55.0,54.9,29.80,East,90,1.7,3.0,100,-99.99,,,-99.99,PWS SA v1.10,2013-06-08 02:46:00,
2013-06-07 22:52:00,54.8,54.8,29.80,ENE,75,1.7,3.0,100,-99.99,,,-99.99,PWS SA v1.10,2013-06-08 02:52:00,
2013-06-07 23:00:00,54.7,55.0,29.80,North,0,0.0,1.0,100,-99.99,,,-99.99,PWS SA v1.10,2013-06-08 03:00:00,
2013-06-07 23:06:00,54.8,54.8,29.79,NNE,21,1.7,1.7,100,-99.99,,,-99.99,PWS SA v1.10,2013-06-08 03:06:00,
2013-06-07 23:12:00,54.8,54.8,29.79,NNE,21,1.7,1.7,100,-99.99,,,-99.99,PWS SA v1.10,2013-06-08 03:12:00,
2013-06-07 23:18:00,54.8,54.8,29.79,NNE,21,1.7,1.7,100,-99.99,,,-99.99,PWS SA v1.10,2013-06-08 03:18:00,
2013-06-07 23:24:00,54.8,54.8,29.79,NNE,21,1.7,1.7,100,-99.99,,,-99.99,PWS SA v1.10,2013-06-08 03:24:00,
2013-06-07 23:30:00,54.8,55.0,29.78,North,0,0.0,0.0,100,-99.99,,,-99.99,PWS SA v1.10,2013-06-08 03:30:00,
2013-06-07 23:36:00,54.8,55.0,29.78,North,0,0.0,0.0,100,-99.99,,,-99.99,PWS SA v1.10,2013-06-08 03:36:00,
2013-06-07 23:44:00,54.9,55.0,29.78,North,0,0.0,0.0,100,-99.99,,,-99.99,PWS SA v1.10,2013-06-08 03:44:00,
2013-06-07 23:52:00,54.9,55.0,29.78,North,0,0.0,0.0,100,-99.99,,,-99.99,PWS SA v1.10,2013-06-08 03:52:00,
2013-06-07 23:58:00,54.9,55.0,29.78,North,0,0.0,0.0,100,-99.99,,,-99.99,PWS SA v1.10,2013-06-08 03:58:00,